Time;durP1;ratioP1;P1;durP2;ratioP2;P2;SDS_P1;SDS_P2;PMS_P1;PMS_P2;Temp;Humidity;BMP_temperature;BMP_pressure;BME280_temperature;BME280_humidity;BME280_pressure;Samples;Min_cycle;Max_cycle;Signal;HPM_P1;HPM_P2
2021/10/15 00:01:20;;;;;;;9.00;7.20;;;9.60;99.90;;;;;;6129544;28;20986;-67
2021/10/15 00:04:23;;;;;;;7.93;6.80;;;9.60;99.90;;;;;;6129543;28;20490;-68
2021/10/15 00:07:27;;;;;;;8.53;7.80;;;9.60;99.90;;;;;;6129490;28;20480;-68
2021/10/15 00:10:31;;;;;;;7.60;6.90;;;9.60;99.90;;;;;;6129870;28;20480;-69
2021/10/15 00:13:34;;;;;;;10.90;7.50;;;9.50;99.90;;;;;;6130579;28;20479;-67
2021/10/15 00:16:39;;;;;;;6.83;5.60;;;9.50;99.90;;;;;;6129574;28;20494;-68
2021/10/15 00:19:42;;;;;;;7.30;5.70;;;9.50;99.90;;;;;;6130358;28;20487;-67
2021/10/15 00:22:45;;;;;;;5.50;5.00;;;9.50;99.90;;;;;;6130265;28;20475;-67
2021/10/15 00:25:50;;;;;;;5.73;5.10;;;9.40;99.90;;;;;;6130090;28;20494;-68
2021/10/15 00:28:53;;;;;;;5.20;4.80;;;9.30;99.90;;;;;;6130446;28;20800;-67
2021/10/15 00:31:56;;;;;;;6.43;5.00;;;9.30;99.90;;;;;;6130081;28;20486;-67
2021/10/15 00:34:59;;;;;;;5.87;5.13;;;9.20;99.90;;;;;;6129495;28;21001;-68
2021/10/15 00:38:02;;;;;;;7.00;5.93;;;9.10;99.90;;;;;;6129766;28;20479;-67
2021/10/15 00:41:08;;;;;;;4.40;4.00;;;9.10;99.90;;;;;;6127465;28;20491;-67
2021/10/15 00:44:13;;;;;;;4.90;4.50;;;9.00;99.90;;;;;;6129622;28;20475;-67
2021/10/15 00:47:16;;;;;;;5.87;4.93;;;9.00;99.90;;;;;;6129718;28;20478;-69
2021/10/15 00:50:19;;;;;;;4.83;4.20;;;9.00;99.90;;;;;;6129519;28;20490;-67
2021/10/15 00:53:23;;;;;;;5.20;4.70;;;8.90;99.90;;;;;;6128767;28;20486;-69
2021/10/15 00:56:29;;;;;;;5.97;5.37;;;8.90;99.90;;;;;;6128976;28;20475;-69
2021/10/15 00:59:32;;;;;;;6.50;4.77;;;8.90;99.90;;;;;;6128890;28;20464;-69
2021/10/15 01:02:36;;;;;;;4.27;3.97;;;8.90;99.90;;;;;;6128354;28;20481;-70
2021/10/15 01:05:40;;;;;;;4.40;4.00;;;8.80;99.90;;;;;;6128255;28;20479;-70
2021/10/15 01:08:47;;;;;;;7.00;5.20;;;8.80;99.90;;;;;;6128326;28;20459;-69
2021/10/15 01:11:52;;;;;;;4.43;4.03;;;8.70;99.90;;;;;;6128762;28;20471;-69
2021/10/15 01:14:55;;;;;;;6.47;4.90;;;8.70;99.90;;;;;;6128748;28;20471;-69
2021/10/15 01:17:58;;;;;;;7.37;5.00;;;8.70;99.90;;;;;;6128453;28;20479;-70
2021/10/15 01:21:03;;;;;;;4.43;3.90;;;8.60;99.90;;;;;;6129042;28;20486;-69
2021/10/15 01:24:06;;;;;;;7.80;4.80;;;8.60;99.90;;;;;;6128486;28;20471;-69
2021/10/15 01:27:10;;;;;;;5.20;4.70;;;8.50;99.90;;;;;;6128201;28;20471;-68
2021/10/15 01:30:13;;;;;;;5.20;4.40;;;8.50;99.90;;;;;;6128245;28;20483;-68
2021/10/15 01:33:17;;;;;;;8.87;4.67;;;8.40;99.90;;;;;;6129432;28;21022;-69
2021/10/15 01:36:21;;;;;;;4.90;3.80;;;8.40;99.90;;;;;;6129817;28;20482;-68
2021/10/15 01:39:25;;;;;;;4.97;4.33;;;8.40;99.90;;;;;;6129724;28;20471;-69
2021/10/15 01:45:49;;;;;;;5.07;3.70;;;8.40;99.90;;;;;;6129516;28;20483;-68
2021/10/15 01:48:52;;;;;;;12.10;9.00;;;8.30;99.90;;;;;;6129851;28;20479;-68
2021/10/15 01:51:56;;;;;;;9.20;8.40;;;8.20;99.90;;;;;;6129517;28;20470;-69
2021/10/15 01:54:59;;;;;;;9.87;9.03;;;8.20;99.90;;;;;;6129168;28;20985;-69
2021/10/15 01:58:03;;;;;;;9.07;8.37;;;8.20;99.90;;;;;;6129529;28;20491;-68
2021/10/15 02:01:06;;;;;;;10.07;9.17;;;8.20;99.90;;;;;;6129381;28;20487;-67
2021/10/15 02:04:09;;;;;;;8.67;7.87;;;8.10;99.90;;;;;;6129995;28;20499;-67
2021/10/15 02:07:14;;;;;;;8.70;7.97;;;8.10;99.90;;;;;;6129205;28;20475;-67
2021/10/15 02:10:18;;;;;;;7.33;6.73;;;8.10;99.90;;;;;;6128941;28;20816;-67
2021/10/15 02:13:21;;;;;;;6.37;4.90;;;8.10;99.90;;;;;;6128835;28;20487;-68
2021/10/15 02:16:24;;;;;;;5.70;4.93;;;8.00;99.90;;;;;;6128646;28;20490;-67
2021/10/15 02:19:28;;;;;;;5.00;4.60;;;8.00;99.90;;;;;;6128810;28;20479;-67
2021/10/15 02:22:32;;;;;;;4.83;4.33;;;8.00;99.90;;;;;;6133395;28;20475;-67
2021/10/15 02:25:35;;;;;;;5.17;4.67;;;8.00;99.90;;;;;;6133425;28;20501;-67
2021/10/15 02:28:38;;;;;;;6.73;4.10;;;7.90;99.90;;;;;;6133071;28;20471;-68
2021/10/15 02:31:42;;;;;;;5.83;4.43;;;7.90;99.90;;;;;;6133159;28;20847;-67
2021/10/15 02:34:45;;;;;;;5.13;4.30;;;7.80;99.90;;;;;;6133447;28;20631;-67
2021/10/15 02:37:50;;;;;;;4.30;3.70;;;7.80;99.90;;;;;;6133055;28;20483;-67
2021/10/15 02:40:53;;;;;;;6.00;4.97;;;7.70;99.90;;;;;;6133283;28;20472;-67
2021/10/15 02:43:56;;;;;;;6.23;4.03;;;7.70;99.90;;;;;;6134922;28;20486;-67
2021/10/15 02:46:59;;;;;;;4.40;4.00;;;7.70;99.90;;;;;;6134291;28;20487;-67
2021/10/15 02:50:03;;;;;;;5.20;4.43;;;7.70;99.90;;;;;;6133435;28;20497;-68
2021/10/15 02:53:08;;;;;;;4.80;4.40;;;7.70;99.90;;;;;;6134484;28;20475;-67
2021/10/15 02:56:11;;;;;;;6.70;4.40;;;7.70;99.90;;;;;;6135874;28;20483;-67
2021/10/15 02:59:14;;;;;;;4.50;4.20;;;7.60;99.90;;;;;;6137400;28;20484;-67
2021/10/15 03:02:17;;;;;;;5.83;5.13;;;7.60;99.90;;;;;;6135475;28;20475;-67
2021/10/15 03:05:21;;;;;;;5.23;4.70;;;7.60;99.90;;;;;;6135112;28;20578;-68
2021/10/15 03:08:25;;;;;;;5.87;4.40;;;7.60;99.90;;;;;;6133964;28;20494;-68
2021/10/15 03:11:28;;;;;;;6.57;5.40;;;7.60;99.90;;;;;;6134069;28;20483;-68
2021/10/15 03:14:31;;;;;;;5.33;4.53;;;7.60;99.90;;;;;;6133883;28;20455;-68
2021/10/15 03:17:35;;;;;;;4.57;4.13;;;7.50;99.90;;;;;;6133110;28;20488;-68
2021/10/15 03:20:38;;;;;;;6.27;4.73;;;7.50;99.90;;;;;;6133759;28;20448;-67
2021/10/15 03:23:42;;;;;;;7.07;5.13;;;7.50;99.90;;;;;;6133793;28;20447;-67
2021/10/15 03:26:45;;;;;;;4.90;4.50;;;7.50;99.90;;;;;;6133597;28;20545;-67
2021/10/15 03:29:49;;;;;;;5.03;4.63;;;7.50;99.90;;;;;;6133940;28;20461;-68
2021/10/15 03:32:52;;;;;;;5.43;4.93;;;7.40;99.90;;;;;;6132734;28;20467;-68
2021/10/15 03:35:55;;;;;;;5.00;4.60;;;7.30;99.90;;;;;;6133066;28;20479;-67
2021/10/15 03:38:59;;;;;;;5.27;4.77;;;7.30;99.90;;;;;;6133489;28;20495;-67
2021/10/15 03:42:02;;;;;;;5.47;4.97;;;7.20;99.90;;;;;;6131412;28;20824;-68
2021/10/15 03:45:07;;;;;;;5.30;4.80;;;7.20;99.90;;;;;;6131632;28;20489;-67
2021/10/15 03:48:10;;;;;;;5.50;5.00;;;7.20;99.90;;;;;;6131676;28;20476;-68
2021/10/15 03:51:14;;;;;;;6.83;4.43;;;7.20;99.90;;;;;;6131565;28;20542;-67
2021/10/15 03:54:18;;;;;;;5.00;4.50;;;7.20;99.90;;;;;;6127594;28;20547;-68
2021/10/15 03:57:21;;;;;;;6.57;5.00;;;7.10;99.90;;;;;;6131604;28;20483;-67
2021/10/15 04:00:25;;;;;;;5.70;5.10;;;7.10;99.90;;;;;;6131502;28;20487;-68
2021/10/15 04:03:28;;;;;;;5.67;5.17;;;7.10;99.90;;;;;;6131668;28;20485;-67
2021/10/15 04:06:31;;;;;;;5.80;5.03;;;7.10;99.90;;;;;;6130935;28;20577;-68
2021/10/15 04:09:36;;;;;;;6.00;5.10;;;7.10;99.90;;;;;;6131185;28;20589;-68
2021/10/15 04:12:39;;;;;;;8.10;5.80;;;7.10;99.90;;;;;;6131820;28;20475;-67
2021/10/15 04:15:42;;;;;;;4.97;4.47;;;7.00;99.90;;;;;;6130976;28;20479;-66
2021/10/15 04:18:45;;;;;;;5.30;4.80;;;7.00;99.90;;;;;;6130945;28;20467;-67
2021/10/15 04:21:48;;;;;;;6.33;5.13;;;7.00;99.90;;;;;;6130889;28;20518;-68
2021/10/15 04:24:53;;;;;;;5.00;4.50;;;7.00;99.90;;;;;;6130827;28;20482;-68
2021/10/15 04:27:56;;;;;;;5.83;5.33;;;6.90;99.90;;;;;;6130055;28;20821;-68
2021/10/15 04:30:59;;;;;;;10.03;4.83;;;6.90;99.90;;;;;;6130630;28;20472;-68
2021/10/15 04:34:03;;;;;;;5.53;5.00;;;6.90;99.90;;;;;;6130156;28;20491;-68
2021/10/15 04:37:06;;;;;;;6.20;4.97;;;6.90;99.90;;;;;;6130208;28;20811;-68
2021/10/15 04:40:11;;;;;;;6.47;5.90;;;6.90;99.90;;;;;;6130504;28;20948;-69
2021/10/15 04:43:14;;;;;;;6.00;5.40;;;6.90;99.90;;;;;;6129710;28;20487;-69
2021/10/15 04:46:17;;;;;;;6.97;5.30;;;6.90;99.90;;;;;;6130692;28;20658;-69
2021/10/15 04:49:20;;;;;;;5.87;5.37;;;6.80;99.90;;;;;;6130318;28;20801;-69
2021/10/15 04:52:23;;;;;;;5.63;4.93;;;6.80;99.90;;;;;;6130068;28;20490;-69
2021/10/15 04:55:28;;;;;;;6.20;5.60;;;6.80;99.90;;;;;;6129743;28;20472;-70
2021/10/15 04:58:31;;;;;;;5.20;4.70;;;6.70;99.90;;;;;;6160992;23;20467;-68
2021/10/15 05:01:34;;;;;;;5.53;4.53;;;6.70;99.90;;;;;;6150181;28;20482;-70
2021/10/15 05:04:39;;;;;;;6.03;5.30;;;6.70;99.90;;;;;;6154435;28;20974;-68
2021/10/15 05:07:42;;;;;;;6.10;5.17;;;6.70;99.90;;;;;;6154078;28;20778;-69
2021/10/15 05:10:47;;;;;;;5.33;4.83;;;6.60;99.90;;;;;;6154026;28;20790;-69
2021/10/15 05:13:50;;;;;;;11.00;5.80;;;6.60;99.90;;;;;;6153475;28;20471;-70
2021/10/15 05:16:53;;;;;;;8.53;5.40;;;6.70;99.90;;;;;;6153611;28;20831;-70
2021/10/15 05:19:57;;;;;;;5.90;5.40;;;6.70;99.90;;;;;;6153894;28;20625;-69
2021/10/15 05:23:00;;;;;;;7.07;6.10;;;6.60;99.90;;;;;;6154112;28;20486;-69
2021/10/15 05:26:04;;;;;;;8.30;5.87;;;6.60;99.90;;;;;;6154735;28;20494;-69
2021/10/15 05:29:07;;;;;;;5.63;5.13;;;6.70;99.90;;;;;;6154266;28;20483;-70
2021/10/15 05:32:12;;;;;;;7.60;6.40;;;6.60;99.90;;;;;;6153722;28;20817;-69
2021/10/15 05:35:15;;;;;;;7.60;6.47;;;6.70;99.90;;;;;;6153399;28;20537;-69
2021/10/15 05:38:18;;;;;;;7.60;6.83;;;6.70;99.90;;;;;;6152909;28;20565;-69
2021/10/15 05:41:23;;;;;;;8.43;6.33;;;6.70;99.90;;;;;;6152840;28;20475;-70
2021/10/15 05:44:26;;;;;;;8.33;6.60;;;6.80;99.90;;;;;;6153320;28;20474;-70
2021/10/15 05:47:30;;;;;;;9.07;6.70;;;6.90;99.90;;;;;;6152881;28;20482;-70
2021/10/15 05:50:34;;;;;;;11.23;6.40;;;7.00;99.90;;;;;;6152998;28;20791;-70
2021/10/15 05:53:37;;;;;;;10.30;6.60;;;7.00;99.90;;;;;;6154121;28;20469;-70
2021/10/15 05:56:47;;;;;;;10.23;9.23;;;7.10;99.90;;;;;;6159230;28;20954;-70
2021/10/15 05:59:50;;;;;;;8.37;6.70;;;7.10;99.90;;;;;;6159857;28;20431;-70
2021/10/15 06:02:53;;;;;;;7.60;5.27;;;7.20;99.90;;;;;;6160564;28;20936;-70
2021/10/15 06:16:11;;;;;;;6.97;6.40;;;7.30;99.90;;;;;;6157786;28;20478;-68
2021/10/15 06:19:17;;;;;;;7.43;6.13;;;7.30;99.90;;;;;;6157053;28;20486;-69
2021/10/15 06:22:21;;;;;;;7.40;5.60;;;7.20;99.90;;;;;;6155578;28;21001;-69
2021/10/15 06:25:24;;;;;;;6.10;4.80;;;7.30;99.90;;;;;;6156575;28;20766;-69
2021/10/15 06:28:29;;;;;;;6.13;5.30;;;7.40;99.90;;;;;;6157307;28;20983;-69
2021/10/15 06:31:32;;;;;;;5.93;3.97;;;7.40;99.90;;;;;;6157409;28;20482;-69
2021/10/15 06:34:35;;;;;;;10.27;6.63;;;7.30;99.90;;;;;;6158153;28;20470;-69
2021/10/15 06:37:38;;;;;;;6.50;4.80;;;7.40;99.90;;;;;;6157302;28;21084;-70
2021/10/15 06:40:41;;;;;;;6.03;4.80;;;7.50;99.90;;;;;;6157100;28;20866;-70
2021/10/15 06:43:47;;;;;;;6.70;4.50;;;7.50;99.90;;;;;;6156701;28;20482;-69
2021/10/15 06:46:52;;;;;;;7.10;5.10;;;7.60;99.90;;;;;;6156780;28;20478;-69
2021/10/15 06:49:56;;;;;;;7.20;5.60;;;7.70;99.90;;;;;;6156896;28;20550;-69
2021/10/15 06:52:59;;;;;;;5.33;4.83;;;7.70;99.90;;;;;;6157065;28;20489;-69
2021/10/15 06:56:02;;;;;;;7.63;5.33;;;7.90;99.90;;;;;;6156737;28;20486;-69
2021/10/15 06:59:07;;;;;;;7.77;5.17;;;8.00;99.90;;;;;;6156328;28;20479;-69
2021/10/15 07:02:10;;;;;;;8.33;5.23;;;8.20;99.90;;;;;;6155868;28;20997;-69
2021/10/15 07:05:14;;;;;;;9.33;5.70;;;8.50;99.90;;;;;;6155166;28;21021;-69
2021/10/15 07:08:17;;;;;;;8.37;6.17;;;9.00;99.90;;;;;;6151586;28;20483;-69
2021/10/15 07:11:21;;;;;;;8.33;5.40;;;9.40;99.90;;;;;;6157134;28;20481;-69
2021/10/15 07:14:27;;;;;;;5.67;5.10;;;9.80;99.90;;;;;;6157008;28;20578;-69
2021/10/15 07:17:30;;;;;;;7.83;4.83;;;10.00;99.80;;;;;;6157975;28;20474;-69
2021/10/15 07:20:34;;;;;;;11.30;5.00;;;10.30;99.50;;;;;;6157006;28;20431;-69
2021/10/15 07:23:37;;;;;;;9.90;4.73;;;10.80;99.00;;;;;;6156812;28;20474;-70
2021/10/15 07:26:40;;;;;;;8.10;5.03;;;11.30;97.40;;;;;;6156328;28;20801;-69
2021/10/15 07:29:45;;;;;;;6.67;4.33;;;11.70;96.60;;;;;;6156086;28;20809;-70
2021/10/15 07:32:52;;;;;;;5.77;4.40;;;11.90;96.30;;;;;;6156007;28;20459;-69
2021/10/15 07:35:55;;;;;;;9.43;4.83;;;12.30;95.60;;;;;;6155867;28;20489;-68
2021/10/15 07:38:59;;;;;;;6.70;4.20;;;12.70;94.50;;;;;;6148245;28;20947;-68
2021/10/15 07:42:03;;;;;;;9.20;4.80;;;13.00;93.70;;;;;;6149178;28;20467;-68
2021/10/15 07:45:10;;;;;;;9.03;5.47;;;13.20;92.60;;;;;;6155682;28;20475;-67
2021/10/15 07:48:31;;;;;;;6.93;5.20;;;13.00;92.30;;;;;;6155512;28;20505;-67
2021/10/15 07:51:34;;;;;;;13.60;4.70;;;12.80;92.30;;;;;;6155568;28;20485;-68
2021/10/15 07:54:38;;;;;;;7.17;4.80;;;12.80;92.40;;;;;;6155512;28;20491;-62
2021/10/15 07:57:41;;;;;;;17.37;9.23;;;12.60;92.50;;;;;;6154452;28;20778;-65
2021/10/15 08:00:46;;;;;;;9.53;5.10;;;12.40;91.90;;;;;;6154772;28;20810;-65
2021/10/15 08:03:49;;;;;;;59.77;31.53;;;12.30;92.40;;;;;;6154707;28;20478;-68
2021/10/15 08:06:52;;;;;;;72.63;38.13;;;12.30;92.40;;;;;;6154708;28;20489;-64
2021/10/15 08:09:55;;;;;;;58.47;35.43;;;13.90;93.30;;;;;;6154382;28;20827;-66
2021/10/15 08:13:00;;;;;;;13.17;6.50;;;17.10;87.10;;;;;;6150154;28;20478;-67
2021/10/15 08:16:05;;;;;;;19.00;12.53;;;19.50;72.60;;;;;;6154353;28;20474;-66
2021/10/15 08:19:08;;;;;;;37.77;20.63;;;22.60;58.90;;;;;;6155037;28;20281;-66
2021/10/15 08:22:12;;;;;;;12.43;8.40;;;25.00;50.30;;;;;;6154399;28;20702;-64
2021/10/15 08:25:15;;;;;;;9.40;5.80;;;27.00;43.90;;;;;;6154663;28;20249;-68
2021/10/15 08:28:18;;;;;;;14.73;5.30;;;28.70;38.60;;;;;;6154774;28;20274;-64
2021/10/15 08:31:43;;;;;;;12.80;5.40;;;31.10;35.10;;;;;;6153666;28;20238;-67
2021/10/15 08:34:46;;;;;;;7.97;5.18;;;33.10;30.00;;;;;;6154409;28;20240;-67
2021/10/15 08:37:49;;;;;;;6.90;4.95;;;34.30;28.20;;;;;;6154052;28;20238;-65
2021/10/15 08:40:52;;;;;;;6.45;4.88;;;35.20;27.00;;;;;;6153606;28;20666;-65
2021/10/15 08:43:58;;;;;;;5.60;4.75;;;36.10;25.80;;;;;;6153842;28;20248;-64
2021/10/15 08:47:03;;;;;;;9.68;8.70;;;37.20;25.00;;;;;;6153661;28;20242;-66
2021/10/15 08:50:26;;;;;;;7.13;5.95;;;37.60;23.70;;;;;;6153589;28;20230;-65
2021/10/15 08:53:30;;;;;;;6.38;5.78;;;38.30;23.10;;;;;;6153842;28;20674;-65
2021/10/15 08:56:34;;;;;;;7.57;6.78;;;38.80;22.90;;;;;;6153432;28;20344;-67
2021/10/15 08:59:40;;;;;;;7.10;6.50;;;39.20;22.10;;;;;;6153366;28;20210;-68
2021/10/15 09:02:44;;;;;;;8.70;6.30;;;38.40;21.80;;;;;;6153434;28;20630;-64
2021/10/15 09:05:54;;;;;;;7.75;7.05;;;38.70;22.00;;;;;;6152534;28;20245;-65
2021/10/15 09:08:58;;;;;;;7.60;6.90;;;38.40;22.10;;;;;;6147863;28;20234;-64
2021/10/15 09:12:08;;;;;;;7.68;6.10;;;38.30;21.70;;;;;;6153226;28;20311;-67
2021/10/15 09:15:12;;;;;;;6.10;5.50;;;37.50;21.60;;;;;;6145700;28;20234;-67
2021/10/15 09:18:18;;;;;;;5.70;5.20;;;36.50;22.50;;;;;;6153455;28;20246;-64
2021/10/15 09:21:22;;;;;;;6.57;5.05;;;37.30;22.20;;;;;;6153808;28;20285;-65
2021/10/15 09:24:36;;;;;;;5.53;5.13;;;39.00;21.40;;;;;;6153131;28;20234;-64
2021/10/15 09:27:40;;;;;;;5.45;5.03;;;40.40;20.00;;;;;;6153570;28;20249;-64
2021/10/15 09:30:45;;;;;;;5.22;4.82;;;40.70;20.30;;;;;;6152972;28;20670;-66
2021/10/15 09:33:54;;;;;;;5.45;5.05;;;41.50;19.20;;;;;;6153754;28;20234;-65
2021/10/15 09:36:58;;;;;;;7.07;6.45;;;42.90;18.50;;;;;;6153145;28;20252;-65
2021/10/15 09:40:07;;;;;;;8.05;5.20;;;43.00;18.00;;;;;;6153217;28;20714;-67
2021/10/15 09:43:13;;;;;;;14.48;13.10;;;42.90;18.00;;;;;;6153061;28;20232;-66
2021/10/15 09:46:22;;;;;;;6.50;5.90;;;43.60;17.30;;;;;;6153053;28;20248;-66
2021/10/15 09:49:47;;;;;;;13.45;12.25;;;43.50;17.40;;;;;;6152499;28;20241;-66
2021/10/15 09:53:01;;;;;;;17.58;15.98;;;43.80;17.30;;;;;;6152833;28;20314;-67
2021/10/15 09:56:04;;;;;;;22.10;19.95;;;42.80;17.80;;;;;;6152437;28;20247;-67
2021/10/15 09:59:09;;;;;;;9.57;8.68;;;42.90;17.40;;;;;;6153174;28;20681;-64
2021/10/15 10:02:13;;;;;;;19.50;17.60;;;44.00;17.70;;;;;;6153018;28;20238;-66
2021/10/15 10:05:19;;;;;;;5.05;4.63;;;44.90;16.60;;;;;;6152958;28;20233;-65
2021/10/15 10:08:22;;;;;;;5.85;4.20;;;45.60;16.20;;;;;;6152662;28;20237;-65
2021/10/15 10:11:26;;;;;;;3.88;3.58;;;43.90;16.40;;;;;;6152467;28;20229;-66
2021/10/15 10:14:49;;;;;;;4.47;4.15;;;43.10;17.00;;;;;;6152675;28;20259;-65
2021/10/15 10:17:58;;;;;;;3.47;3.17;;;43.90;16.50;;;;;;6147991;28;20261;-65
2021/10/15 10:21:06;;;;;;;4.18;3.67;;;44.80;16.40;;;;;;6152555;28;20239;-66
2021/10/15 10:24:14;;;;;;;4.40;4.00;;;45.40;15.90;;;;;;6152828;28;20228;-63
2021/10/15 10:27:27;;;;;;;6.88;6.13;;;45.50;15.90;;;;;;6152489;28;20263;-65
2021/10/15 10:30:38;;;;;;;4.28;3.90;;;45.90;15.60;;;;;;6152373;28;20242;-65
2021/10/15 10:33:53;;;;;;;11.27;10.23;;;43.70;15.90;;;;;;6152325;28;20547;-65
2021/10/15 10:37:06;;;;;;;4.80;4.40;;;43.90;16.70;;;;;;6152266;28;20243;-65
2021/10/15 10:40:25;;;;;;;4.00;3.70;;;45.30;16.10;;;;;;6152338;28;20317;-65
2021/10/15 10:43:29;;;;;;;3.60;3.40;;;44.90;16.30;;;;;;6156843;28;20233;-63
2021/10/15 10:46:33;;;;;;;3.70;2.90;;;46.10;15.30;;;;;;6156454;28;20245;-65
2021/10/15 10:49:36;;;;;;;2.05;1.85;;;46.20;14.90;;;;;;6156791;28;20242;-66
2021/10/15 10:53:08;;;;;;;2.75;2.55;;;44.50;15.20;;;;;;6156725;28;20688;-65
2021/10/15 10:56:42;;;;;;;2.05;1.70;;;43.90;15.40;;;;;;6156328;28;20700;-64
2021/10/15 10:59:46;;;;;;;2.03;1.80;;;44.70;15.20;;;;;;6156065;28;20218;-66
2021/10/15 11:02:51;;;;;;;3.38;2.30;;;45.80;14.90;;;;;;6156252;28;20568;-67
2021/10/15 11:05:55;;;;;;;2.63;2.47;;;46.60;14.60;;;;;;6156192;28;20287;-66
2021/10/15 11:09:30;;;;;;;2.63;2.38;;;47.40;14.30;;;;;;6156203;28;20227;-66
2021/10/15 11:13:00;;;;;;;2.30;1.90;;;47.30;14.40;;;;;;6156030;28;20604;-67
2021/10/15 11:16:19;;;;;;;2.30;2.10;;;47.40;14.10;;;;;;6156133;28;20269;-64
2021/10/15 11:19:23;;;;;;;2.15;1.92;;;47.40;14.30;;;;;;6156313;28;20245;-66
2021/10/15 11:22:26;;;;;;;1.52;1.38;;;47.00;14.20;;;;;;6155919;28;20225;-66
2021/10/15 11:25:33;;;;;;;1.80;1.70;;;47.10;14.60;;;;;;6142193;28;20595;-67
2021/10/15 11:28:36;;;;;;;2.80;2.20;;;47.70;14.10;;;;;;6155868;28;20234;-63
2021/10/15 11:31:39;;;;;;;2.45;2.25;;;47.70;13.80;;;;;;6156208;28;20715;-63
2021/10/15 11:35:07;;;;;;;2.45;2.25;;;46.20;14.50;;;;;;6155555;28;20675;-66
2021/10/15 11:38:13;;;;;;;2.60;2.10;;;45.70;14.60;;;;;;6155632;28;20239;-64
2021/10/15 11:41:19;;;;;;;2.33;2.03;;;46.40;14.70;;;;;;6155906;28;20302;-65
2021/10/15 11:44:36;;;;;;;2.22;1.83;;;46.80;14.20;;;;;;6155315;28;20567;-65
2021/10/15 11:47:39;;;;;;;2.13;1.67;;;46.90;14.50;;;;;;6156022;28;20230;-64
2021/10/15 11:50:50;;;;;;;2.58;2.38;;;45.60;14.50;;;;;;6155008;28;20234;-64
2021/10/15 11:53:55;;;;;;;1.70;1.60;;;43.50;15.80;;;;;;6155241;28;20196;-64
2021/10/15 11:57:00;;;;;;;1.77;1.60;;;44.70;15.70;;;;;;6155032;28;20236;-63
2021/10/15 12:00:10;;;;;;;2.20;2.00;;;46.50;14.90;;;;;;6155129;28;20572;-64
2021/10/15 12:03:23;;;;;;;3.22;2.95;;;47.10;14.70;;;;;;6155342;28;20234;-64
2021/10/15 12:06:29;;;;;;;4.65;2.00;;;47.20;14.30;;;;;;6155077;28;20327;-64
2021/10/15 12:09:37;;;;;;;2.83;1.88;;;47.60;14.30;;;;;;6154935;28;20695;-65
2021/10/15 12:12:42;;;;;;;3.05;1.98;;;47.90;14.00;;;;;;6154220;28;20244;-65
2021/10/15 12:15:45;;;;;;;1.60;1.50;;;47.60;13.80;;;;;;6154455;28;20245;-65
2021/10/15 12:18:57;;;;;;;1.63;1.52;;;46.80;14.10;;;;;;6154850;28;20282;-64
2021/10/15 12:22:04;;;;;;;1.50;1.20;;;47.60;14.20;;;;;;6154519;28;20241;-63
2021/10/15 12:25:09;;;;;;;1.55;1.45;;;48.30;13.70;;;;;;6154212;28;20571;-64
2021/10/15 12:28:15;;;;;;;2.50;1.60;;;48.20;13.60;;;;;;6145234;28;20251;-63
2021/10/15 12:31:28;;;;;;;1.48;1.38;;;47.60;13.60;;;;;;6154563;28;20238;-66
2021/10/15 12:34:32;;;;;;;1.90;1.80;;;47.60;13.90;;;;;;6154632;28;20232;-64
2021/10/15 12:37:40;;;;;;;2.10;1.40;;;46.60;14.30;;;;;;6154472;28;20558;-63
2021/10/15 12:40:43;;;;;;;2.88;1.52;;;46.30;14.50;;;;;;6154082;28;20682;-64
2021/10/15 12:43:47;;;;;;;1.65;1.52;;;47.10;14.20;;;;;;6154008;28;20245;-63
2021/10/15 12:47:03;;;;;;;1.60;1.50;;;47.80;13.90;;;;;;6154209;28;20259;-63
2021/10/15 12:50:08;;;;;;;2.17;1.80;;;48.30;13.70;;;;;;6153900;28;20231;-64
2021/10/15 12:53:16;;;;;;;2.15;1.35;;;48.10;13.60;;;;;;6153580;28;20233;-64
2021/10/15 12:56:29;;;;;;;2.30;1.80;;;46.80;14.00;;;;;;6153083;28;20322;-65
2021/10/15 12:59:33;;;;;;;2.42;1.65;;;46.90;14.20;;;;;;6153409;28;20233;-65
2021/10/15 13:02:37;;;;;;;4.45;1.70;;;46.70;14.40;;;;;;6153843;28;20225;-63
2021/10/15 13:05:40;;;;;;;2.22;1.77;;;46.40;14.60;;;;;;6152632;28;20210;-65
2021/10/15 13:08:46;;;;;;;1.92;1.63;;;46.30;14.50;;;;;;6154236;28;20213;-66
2021/10/15 13:11:49;;;;;;;2.40;2.08;;;44.80;15.20;;;;;;6153236;28;20643;-64
2021/10/15 13:14:54;;;;;;;1.90;1.63;;;45.20;15.10;;;;;;6154874;28;20217;-63
2021/10/15 13:17:57;;;;;;;2.90;1.85;;;44.20;15.50;;;;;;6157754;28;20255;-66
2021/10/15 13:21:00;;;;;;;2.17;1.98;;;43.40;15.80;;;;;;6155966;28;20220;-66
2021/10/15 13:24:03;;;;;;;2.15;2.00;;;43.30;16.00;;;;;;6158721;28;20275;-66
2021/10/15 13:27:07;;;;;;;1.95;1.75;;;43.30;16.10;;;;;;6161626;28;20241;-66
2021/10/15 13:30:13;;;;;;;2.30;2.10;;;43.50;16.20;;;;;;6157096;28;20229;-66
2021/10/15 13:33:18;;;;;;;2.00;1.52;;;42.60;16.60;;;;;;6155223;28;20245;-66
2021/10/15 13:36:21;;;;;;;2.33;1.60;;;40.30;17.60;;;;;;6155179;28;20585;-66
2021/10/15 13:39:29;;;;;;;2.65;2.13;;;37.50;19.20;;;;;;6154194;28;20230;-66
2021/10/15 13:43:02;;;;;;;2.58;2.03;;;34.80;21.20;;;;;;6160431;28;20234;-66
2021/10/15 13:46:28;;;;;;;2.65;1.88;;;32.30;23.10;;;;;;6154935;28;20238;-66
2021/10/15 13:49:48;;;;;;;2.03;1.93;;;29.60;26.00;;;;;;6154649;28;20237;-65
2021/10/15 13:52:51;;;;;;;2.40;2.20;;;27.20;28.60;;;;;;6154637;28;20242;-65
2021/10/15 13:55:55;;;;;;;2.53;1.73;;;25.50;30.60;;;;;;6153093;28;20253;-65
2021/10/15 13:59:07;;;;;;;3.47;1.90;;;24.60;32.70;;;;;;6152965;28;20242;-66
2021/10/15 14:02:13;;;;;;;3.33;1.80;;;23.80;34.20;;;;;;6151625;28;20308;-66
2021/10/15 14:05:16;;;;;;;2.20;1.73;;;23.10;35.10;;;;;;6153306;28;20744;-65
2021/10/15 14:08:19;;;;;;;1.97;1.73;;;22.50;36.50;;;;;;6152807;28;20231;-65
2021/10/15 14:11:23;;;;;;;2.07;1.87;;;22.00;37.70;;;;;;6152083;28;20558;-65
2021/10/15 14:14:26;;;;;;;2.57;1.80;;;21.40;38.90;;;;;;6152229;28;20577;-66
2021/10/15 14:17:31;;;;;;;4.63;1.93;;;21.20;39.90;;;;;;6156642;28;20254;-64
2021/10/15 14:20:34;;;;;;;3.10;1.97;;;21.10;40.20;;;;;;6156958;28;20226;-64
2021/10/15 14:23:38;;;;;;;1.80;1.57;;;20.80;40.90;;;;;;6156565;28;20238;-64
2021/10/15 14:26:41;;;;;;;2.53;2.30;;;20.60;41.40;;;;;;6157009;28;20231;-64
2021/10/15 14:29:47;;;;;;;1.80;1.70;;;20.20;42.10;;;;;;6157058;28;20218;-64
2021/10/15 14:32:53;;;;;;;2.53;1.90;;;19.70;43.30;;;;;;6157343;28;20319;-64
2021/10/15 14:35:56;;;;;;;2.70;2.50;;;19.40;44.10;;;;;;6156570;28;20662;-64
2021/10/15 14:39:00;;;;;;;2.93;2.43;;;19.10;45.40;;;;;;6157207;28;20614;-62
2021/10/15 14:42:06;;;;;;;2.67;2.47;;;18.90;46.20;;;;;;6157057;28;20234;-64
2021/10/15 14:45:11;;;;;;;2.77;2.57;;;18.70;46.50;;;;;;6157059;28;20238;-64
2021/10/15 14:48:15;;;;;;;3.40;2.60;;;18.50;47.20;;;;;;6156377;28;20229;-65
2021/10/15 14:51:19;;;;;;;4.30;2.37;;;18.40;47.40;;;;;;6156588;28;20820;-63
2021/10/15 14:54:22;;;;;;;3.40;2.83;;;18.30;47.80;;;;;;6156438;28;20827;-63
2021/10/15 14:57:25;;;;;;;3.07;2.83;;;18.10;48.40;;;;;;6156264;28;20482;-63
2021/10/15 15:00:28;;;;;;;2.60;2.40;;;17.90;49.10;;;;;;6156433;28;20799;-62
2021/10/15 15:03:33;;;;;;;3.60;2.87;;;17.60;50.70;;;;;;6156020;28;21010;-63
2021/10/15 15:06:36;;;;;;;2.77;2.40;;;17.30;50.90;;;;;;6156564;28;20482;-62
2021/10/15 15:09:43;;;;;;;2.60;2.40;;;17.10;51.60;;;;;;6156629;28;20487;-65
2021/10/15 15:12:46;;;;;;;2.80;2.60;;;17.00;52.20;;;;;;6156318;28;20489;-63
2021/10/15 15:15:50;;;;;;;2.77;2.47;;;17.00;52.60;;;;;;6155992;28;20475;-62
2021/10/15 15:18:54;;;;;;;4.37;3.17;;;17.00;53.00;;;;;;6157271;28;20491;-62
2021/10/15 15:22:18;;;;;;;3.43;3.13;;;16.80;53.30;;;;;;6157230;28;20471;-63
2021/10/15 15:25:22;;;;;;;4.13;2.63;;;16.80;53.60;;;;;;6156132;28;20474;-63
2021/10/15 15:28:28;;;;;;;3.63;3.30;;;16.70;54.10;;;;;;6154460;28;20534;-63
2021/10/15 15:31:31;;;;;;;3.27;3.00;;;16.60;54.10;;;;;;6155986;28;20478;-63
2021/10/15 15:34:36;;;;;;;3.63;3.33;;;16.60;54.60;;;;;;6155425;28;20982;-64
2021/10/15 15:37:41;;;;;;;3.90;3.27;;;16.60;54.90;;;;;;6155392;28;20485;-64
2021/10/15 15:40:45;;;;;;;3.20;2.90;;;16.50;55.40;;;;;;6146583;28;20813;-65
2021/10/15 15:43:49;;;;;;;3.77;3.13;;;16.40;55.80;;;;;;6155485;28;20589;-64
2021/10/15 15:46:57;;;;;;;4.57;3.03;;;16.20;56.60;;;;;;6156032;28;20498;-66
2021/10/15 15:50:01;;;;;;;3.60;3.30;;;16.00;57.30;;;;;;6155346;28;21022;-65
2021/10/15 15:53:07;;;;;;;4.40;2.90;;;15.80;58.20;;;;;;6155210;28;20493;-63
2021/10/15 15:56:11;;;;;;;3.57;3.10;;;15.70;59.00;;;;;;6154838;28;20490;-64
2021/10/15 15:59:15;;;;;;;3.23;2.80;;;15.50;59.90;;;;;;6155062;28;21122;-67
2021/10/15 16:02:18;;;;;;;3.50;3.07;;;15.40;60.70;;;;;;6155023;28;20482;-67
2021/10/15 16:05:27;;;;;;;3.60;3.30;;;15.40;61.50;;;;;;6155087;28;20482;-68
2021/10/15 16:08:30;;;;;;;3.83;3.10;;;15.40;62.20;;;;;;6155559;28;20481;-63
2021/10/15 16:11:34;;;;;;;3.27;2.47;;;15.30;62.50;;;;;;6155516;28;20474;-66
2021/10/15 16:14:37;;;;;;;4.33;3.70;;;15.40;62.90;;;;;;6155065;28;20482;-66
2021/10/15 16:17:41;;;;;;;4.40;3.57;;;15.30;63.30;;;;;;6155122;28;20463;-67
2021/10/15 16:20:45;;;;;;;3.70;3.33;;;15.40;63.80;;;;;;6155340;28;20446;-67
2021/10/15 16:23:48;;;;;;;3.87;3.57;;;15.30;63.90;;;;;;6154989;28;20896;-67